createdAt,value
2018-12-20T00:00:14.699Z,34.33
2018-12-20T00:02:42.393Z,34.90
2018-12-20T00:05:10.037Z,35.17
2018-12-20T00:07:42.219Z,33.10
2018-12-20T00:10:09.905Z,32.57
2018-12-20T00:12:37.578Z,30.43
2018-12-20T00:15:05.145Z,36.33
2018-12-20T00:17:38.442Z,34.03
2018-12-20T00:20:07.745Z,35.83
2018-12-20T00:22:35.241Z,42.13
2018-12-20T00:25:02.815Z,42.27
2018-12-20T00:27:30.415Z,55.70
2018-12-20T00:29:58.151Z,47.27
2018-12-20T00:32:25.826Z,39.63
2018-12-20T00:34:53.455Z,39.00
2018-12-20T00:37:21.158Z,45.17
2018-12-20T00:39:48.760Z,37.07
2018-12-20T00:42:16.464Z,43.00
2018-12-20T00:44:44.188Z,31.00
2018-12-20T00:47:16.152Z,39.37
2018-12-20T00:49:43.661Z,35.07
2018-12-20T00:52:11.427Z,39.30
2018-12-20T00:54:39.066Z,36.90
2018-12-20T00:57:06.869Z,34.80
2018-12-20T00:59:34.406Z,33.87
2018-12-20T01:02:02.947Z,31.03
2018-12-20T01:04:31.018Z,32.37
2018-12-20T01:06:58.745Z,30.20
2018-12-20T01:09:26.355Z,26.83
2018-12-20T01:11:53.902Z,24.57
2018-12-20T01:14:21.582Z,20.10
2018-12-20T01:16:49.075Z,19.33
2018-12-20T01:19:16.672Z,21.23
2018-12-20T01:21:45.208Z,20.50
2018-12-20T01:24:13.232Z,19.27
2018-12-20T01:26:40.813Z,17.37
2018-12-20T01:29:08.440Z,16.43
2018-12-20T01:31:35.946Z,18.30
2018-12-20T01:34:03.603Z,18.83
2018-12-20T01:36:31.293Z,19.93
2018-12-20T01:38:59.167Z,14.97
2018-12-20T01:41:26.811Z,15.63
2018-12-20T01:43:54.907Z,16.90
2018-12-20T01:46:22.521Z,14.70
2018-12-20T01:48:53.978Z,13.13
2018-12-20T01:51:22.523Z,11.73
2018-12-20T01:53:50.808Z,14.30
2018-12-20T01:56:18.513Z,13.87
2018-12-20T01:58:46.217Z,13.43
2018-12-20T02:01:14.190Z,19.40
2018-12-20T02:03:41.747Z,17.03
2018-12-20T02:06:10.875Z,16.57
2018-12-20T02:08:38.436Z,17.00
2018-12-20T02:11:06.062Z,17.17
2018-12-20T02:13:34.488Z,14.20
2018-12-20T02:16:02.491Z,15.90
2018-12-20T02:18:30.294Z,14.83
2018-12-20T02:20:57.971Z,19.10
2018-12-20T02:23:25.598Z,15.80
2018-12-20T02:25:53.149Z,16.50
2018-12-20T02:28:20.600Z,18.53
2018-12-20T02:30:48.091Z,17.60
2018-12-20T02:33:19.067Z,19.17
2018-12-20T02:35:46.805Z,16.00
2018-12-20T02:38:15.273Z,14.03
2018-12-20T02:40:43.034Z,15.57
2018-12-20T02:43:11.592Z,15.70
2018-12-20T02:46:05.031Z,13.53
2018-12-20T02:48:32.973Z,14.53
2018-12-20T02:51:00.767Z,15.50
2018-12-20T02:53:29.068Z,17.43
2018-12-20T02:55:57.581Z,12.57
2018-12-20T02:58:25.588Z,14.57
2018-12-20T03:00:57.565Z,16.63
2018-12-20T03:03:25.865Z,12.57
2018-12-20T03:05:53.589Z,13.83
2018-12-20T03:08:21.275Z,16.10
2018-12-20T03:10:48.753Z,16.60
2018-12-20T03:13:17.427Z,14.13
2018-12-20T03:15:45.092Z,13.73
2018-12-20T03:18:12.799Z,17.83
2018-12-20T03:20:41.279Z,16.20
2018-12-20T03:23:08.856Z,13.40
2018-12-20T03:25:37.312Z,15.10
2018-12-20T03:28:05.525Z,14.57
2018-12-20T03:30:34.297Z,13.30
2018-12-20T03:33:01.913Z,13.30
2018-12-20T03:35:29.490Z,11.47
2018-12-20T03:37:57.228Z,15.23
2018-12-20T03:40:24.840Z,14.97
2018-12-20T03:42:53.013Z,13.17
2018-12-20T03:45:28.622Z,17.93
2018-12-20T03:47:52.656Z,15.83
2018-12-20T03:50:20.262Z,14.73
2018-12-20T03:52:47.851Z,12.07
2018-12-20T03:55:15.467Z,13.03
2018-12-20T03:57:43.251Z,11.90
2018-12-20T04:00:12.097Z,12.03
2018-12-20T04:02:39.780Z,12.80
2018-12-20T04:05:07.581Z,13.10
2018-12-20T04:07:35.402Z,10.37
2018-12-20T04:10:03.766Z,11.87
2018-12-20T04:12:31.391Z,10.30
2018-12-20T04:14:58.910Z,12.37
2018-12-20T04:17:26.509Z,9.20
2018-12-20T04:19:56.575Z,20.27
2018-12-20T04:22:24.699Z,11.40
2018-12-20T04:24:53.225Z,10.67
2018-12-20T04:27:21.202Z,13.53
2018-12-20T04:29:49.355Z,10.57
2018-12-20T04:32:16.869Z,12.07
2018-12-20T04:34:44.427Z,9.73
2018-12-20T04:37:12.113Z,13.17
2018-12-20T04:39:39.766Z,9.37
2018-12-20T04:42:07.668Z,12.20
2018-12-20T04:44:35.345Z,12.13
2018-12-20T04:47:02.861Z,9.93
2018-12-20T04:49:30.328Z,13.53
2018-12-20T04:51:57.810Z,11.87
2018-12-20T04:54:25.273Z,10.63
2018-12-20T04:56:52.844Z,10.53
2018-12-20T04:59:20.769Z,11.97
2018-12-20T05:01:49.479Z,10.77
2018-12-20T05:04:17.143Z,8.37
2018-12-20T05:06:44.695Z,10.73
2018-12-20T05:09:12.253Z,11.23
2018-12-20T05:11:39.946Z,11.63
2018-12-20T05:14:07.567Z,11.73
2018-12-20T05:16:35.182Z,9.60
2018-12-20T05:19:02.790Z,11.63
2018-12-20T05:21:30.435Z,10.10
2018-12-20T05:23:57.961Z,12.47
2018-12-20T05:26:25.707Z,9.83
2018-12-20T05:28:53.405Z,9.57
2018-12-20T05:31:20.922Z,8.33
2018-12-20T05:33:48.889Z,10.43
2018-12-20T05:36:16.467Z,8.43
2018-12-20T05:38:44.753Z,8.47
2018-12-20T05:41:13.280Z,9.27
2018-12-20T05:43:41.988Z,8.00
2018-12-20T05:46:10.139Z,9.33
2018-12-20T05:48:37.677Z,9.13
2018-12-20T05:51:05.472Z,11.57
2018-12-20T05:53:33.416Z,11.43
2018-12-20T05:56:01.205Z,11.33
2018-12-20T05:58:29.030Z,9.27
2018-12-20T06:00:57.352Z,10.10
2018-12-20T06:03:25.151Z,9.20
2018-12-20T06:05:53.613Z,14.80
2018-12-20T06:08:21.270Z,10.40
2018-12-20T06:10:48.917Z,11.43
2018-12-20T06:13:16.365Z,9.53
2018-12-20T06:15:43.975Z,8.90
2018-12-20T06:18:11.678Z,10.13
2018-12-20T06:20:39.502Z,16.33
2018-12-20T06:23:07.227Z,11.83
2018-12-20T06:25:34.748Z,12.10
2018-12-20T06:28:02.293Z,14.23
2018-12-20T06:30:30.795Z,11.03
2018-12-20T06:33:00.277Z,12.47
2018-12-20T06:35:27.799Z,9.27
2018-12-20T06:37:56.749Z,13.10
2018-12-20T06:40:24.880Z,10.43
2018-12-20T06:42:52.423Z,13.50
2018-12-20T06:45:19.966Z,13.17
2018-12-20T06:47:47.729Z,15.10
2018-12-20T06:50:16.061Z,8.77
2018-12-20T06:52:43.607Z,13.63
2018-12-20T06:55:11.091Z,10.73
2018-12-20T06:57:39.105Z,13.77
2018-12-20T07:00:07.659Z,10.70
2018-12-20T07:02:38.524Z,12.67
2018-12-20T07:05:08.345Z,20.20
2018-12-20T07:07:37.106Z,12.13
2018-12-20T07:10:05.077Z,9.47
2018-12-20T07:12:33.613Z,8.60
2018-12-20T07:15:02.358Z,12.90
2018-12-20T07:17:29.942Z,7.63
2018-12-20T07:19:57.954Z,10.07
2018-12-20T07:22:25.475Z,10.83
2018-12-20T07:24:52.923Z,9.40
2018-12-20T07:27:21.032Z,9.70
2018-12-20T07:29:55.281Z,13.87
2018-12-20T07:32:25.331Z,12.40
2018-12-20T07:34:52.273Z,8.53
2018-12-20T07:37:19.806Z,13.00
2018-12-20T07:39:49.069Z,11.67
2018-12-20T07:42:17.349Z,11.70
2018-12-20T07:44:45.244Z,10.20
2018-12-20T07:47:12.701Z,12.23
2018-12-20T07:49:40.875Z,10.83
2018-12-20T07:52:08.402Z,10.83
2018-12-20T07:54:36.241Z,10.60
2018-12-20T07:57:03.721Z,8.00
2018-12-20T07:59:31.764Z,7.90
2018-12-20T08:01:59.232Z,12.47
2018-12-20T08:04:26.638Z,11.97
2018-12-20T08:06:54.306Z,8.50
2018-12-20T08:09:21.916Z,9.47
2018-12-20T08:11:50.101Z,10.50
2018-12-20T08:14:17.654Z,8.73
2018-12-20T08:16:46.113Z,13.87
2018-12-20T08:19:13.908Z,12.20
2018-12-20T08:21:41.373Z,15.10
2018-12-20T08:24:08.863Z,13.67
2018-12-20T08:26:37.254Z,13.00
2018-12-20T08:29:04.863Z,14.97
2018-12-20T08:31:32.483Z,11.00
2018-12-20T08:34:03.936Z,9.93
2018-12-20T08:36:33.565Z,13.03
2018-12-20T08:39:01.192Z,10.87
2018-12-20T08:41:28.808Z,8.40
2018-12-20T08:43:57.999Z,9.43
2018-12-20T08:46:25.558Z,7.57
2018-12-20T08:48:53.836Z,8.73
2018-12-20T08:51:21.436Z,9.27
2018-12-20T08:53:48.906Z,9.60
2018-12-20T08:56:16.573Z,6.70
2018-12-20T08:58:44.940Z,6.40
2018-12-20T09:01:12.472Z,9.07
2018-12-20T09:03:39.961Z,8.57
2018-12-20T09:06:07.793Z,9.77
2018-12-20T09:08:36.891Z,9.27
2018-12-20T09:11:04.417Z,9.30
2018-12-20T09:13:32.069Z,7.73
2018-12-20T09:15:59.583Z,8.20
2018-12-20T09:18:28.130Z,9.30
2018-12-20T09:21:00.291Z,7.90
2018-12-20T09:23:27.903Z,7.57
2018-12-20T09:25:55.687Z,9.00
2018-12-20T09:28:23.325Z,7.10
2018-12-20T09:30:51.000Z,8.17
2018-12-20T09:33:18.554Z,5.97
2018-12-20T09:35:46.273Z,10.37
2018-12-20T09:38:13.893Z,7.23
2018-12-20T09:40:41.510Z,7.30
2018-12-20T09:43:09.300Z,7.57
2018-12-20T09:45:37.056Z,6.67
2018-12-20T09:48:08.898Z,7.63
2018-12-20T09:50:36.425Z,8.13
2018-12-20T09:53:03.989Z,7.03
2018-12-20T09:55:31.498Z,6.53
2018-12-20T09:57:59.163Z,7.67
2018-12-20T10:00:26.635Z,7.93
2018-12-20T10:02:54.114Z,12.90
2018-12-20T10:05:21.877Z,10.17
2018-12-20T10:07:49.297Z,6.50
2018-12-20T10:10:17.185Z,7.17
2018-12-20T10:12:44.630Z,9.77
2018-12-20T10:15:12.845Z,11.67
2018-12-20T10:17:52.752Z,8.77
2018-12-20T10:20:20.967Z,8.67
2018-12-20T10:22:48.535Z,8.10
2018-12-20T10:25:16.034Z,7.03
2018-12-20T10:27:43.565Z,9.60
2018-12-20T10:30:11.126Z,5.27
2018-12-20T10:32:38.723Z,8.40
2018-12-20T10:35:06.326Z,7.63
2018-12-20T10:37:34.651Z,10.70
2018-12-20T10:40:03.247Z,7.07
2018-12-20T10:42:30.787Z,7.37
2018-12-20T10:44:58.463Z,9.97
2018-12-20T10:47:29.261Z,11.30
2018-12-20T10:49:56.520Z,12.70
2018-12-20T10:52:23.980Z,11.03
2018-12-20T10:54:51.506Z,17.57
2018-12-20T10:57:19.627Z,13.97
2018-12-20T10:59:48.961Z,15.17
2018-12-20T11:02:22.050Z,19.83
2018-12-20T11:04:59.081Z,11.37
2018-12-20T11:07:32.794Z,14.13
2018-12-20T11:10:06.300Z,14.87
2018-12-20T11:12:39.219Z,11.87
2018-12-20T11:15:07.254Z,8.93
2018-12-20T11:17:37.548Z,14.57
2018-12-20T11:20:05.777Z,13.30
2018-12-20T11:22:33.603Z,12.17
2018-12-20T11:25:01.061Z,12.73
2018-12-20T11:27:28.516Z,15.50
2018-12-20T11:29:56.357Z,17.33
2018-12-20T11:32:24.166Z,21.53
2018-12-20T11:34:51.691Z,17.60
2018-12-20T11:37:19.297Z,14.77
2018-12-20T11:39:46.825Z,12.97
2018-12-20T11:42:14.413Z,17.70
2018-12-20T11:44:41.976Z,16.17
2018-12-20T11:47:13.750Z,18.33
2018-12-20T11:49:41.603Z,14.57
2018-12-20T11:52:09.940Z,14.07
2018-12-20T11:54:38.965Z,14.13
2018-12-20T11:57:06.449Z,11.23
2018-12-20T11:59:34.060Z,15.17
2018-12-20T12:02:02.664Z,13.83
2018-12-20T12:04:30.279Z,14.80
2018-12-20T12:07:01.981Z,10.10
2018-12-20T12:09:29.686Z,13.70
2018-12-20T12:11:57.313Z,13.23
2018-12-20T12:14:25.134Z,13.27
2018-12-20T12:16:52.655Z,10.77
2018-12-20T12:22:27.205Z,8.20
2018-12-20T12:24:54.712Z,11.77
2018-12-20T12:27:26.863Z,10.00
2018-12-20T12:29:54.632Z,12.47
2018-12-20T12:32:22.529Z,9.67
2018-12-20T12:34:50.207Z,13.87
2018-12-20T12:37:24.302Z,11.97
2018-12-20T12:39:53.795Z,8.93
2018-12-20T12:42:25.765Z,9.70
2018-12-20T12:44:53.894Z,11.93
2018-12-20T12:47:25.807Z,10.00
2018-12-20T12:49:53.515Z,8.93
2018-12-20T12:52:21.033Z,9.83
2018-12-20T12:54:48.633Z,7.97
2018-12-20T12:57:16.616Z,10.93
2018-12-20T12:59:44.236Z,8.13
2018-12-20T13:02:11.810Z,7.57
2018-12-20T13:04:39.361Z,10.07
2018-12-20T13:07:06.904Z,8.40
2018-12-20T13:09:34.366Z,8.67
2018-12-20T13:12:02.984Z,9.27
2018-12-20T13:14:30.544Z,6.87
2018-12-20T13:16:58.563Z,10.40
2018-12-20T13:19:27.364Z,10.30
2018-12-20T13:21:54.847Z,10.47
2018-12-20T13:24:22.758Z,11.00
2018-12-20T13:26:50.393Z,10.00
2018-12-20T13:29:18.297Z,10.30
2018-12-20T13:31:45.866Z,8.10
2018-12-20T13:34:13.558Z,12.17
2018-12-20T13:36:41.029Z,10.50
2018-12-20T13:39:08.690Z,7.17
2018-12-20T13:41:36.249Z,6.20
2018-12-20T13:44:03.891Z,7.57
2018-12-20T13:46:31.781Z,4.93
2018-12-20T13:49:03.331Z,6.87
2018-12-20T13:51:30.967Z,8.97
2018-12-20T13:53:58.513Z,9.37
2018-12-20T13:56:26.118Z,8.13
2018-12-20T13:58:53.737Z,6.27
2018-12-20T14:01:21.227Z,7.73
2018-12-20T14:03:48.785Z,7.43
2018-12-20T14:06:18.739Z,9.33
2018-12-20T14:08:46.655Z,5.30
2018-12-20T14:11:14.894Z,6.87
2018-12-20T14:13:42.336Z,9.20
2018-12-20T14:16:10.149Z,8.30
2018-12-20T14:18:37.707Z,8.53
2018-12-20T14:21:05.738Z,7.17
2018-12-20T14:23:33.176Z,10.13
2018-12-20T14:26:01.128Z,8.97
2018-12-20T14:28:28.779Z,8.67
2018-12-20T14:30:56.203Z,6.87
2018-12-20T14:33:23.665Z,5.83
2018-12-20T14:35:51.152Z,8.57
2018-12-20T14:38:19.252Z,7.97
2018-12-20T14:40:46.699Z,8.10
2018-12-20T14:43:14.227Z,6.37
2018-12-20T14:45:42.668Z,8.50
2018-12-20T14:48:12.335Z,6.87
2018-12-20T14:50:39.800Z,10.77
2018-12-20T14:53:07.318Z,9.30
2018-12-20T14:55:34.767Z,6.43
2018-12-20T14:58:02.563Z,9.07
2018-12-20T15:00:31.292Z,8.50
2018-12-20T15:02:58.846Z,10.47
2018-12-20T15:05:26.978Z,8.87
2018-12-20T15:07:54.517Z,10.73
2018-12-20T15:10:21.987Z,8.37
2018-12-20T15:12:50.179Z,9.53
2018-12-20T15:15:18.524Z,11.50
2018-12-20T15:17:46.051Z,9.80
2018-12-20T15:20:13.652Z,7.07
2018-12-20T15:22:41.440Z,9.37
2018-12-20T15:25:09.219Z,9.63
2018-12-20T15:27:37.605Z,8.00
2018-12-20T15:30:05.232Z,10.23
2018-12-20T15:32:37.023Z,11.67
2018-12-20T15:35:04.668Z,7.23
2018-12-20T15:37:40.214Z,8.97
2018-12-20T15:40:09.120Z,8.67
2018-12-20T15:42:37.565Z,10.97
2018-12-20T15:45:09.260Z,8.33
2018-12-20T15:47:36.814Z,6.60
2018-12-20T15:50:05.754Z,5.93
2018-12-20T15:52:33.887Z,5.63
2018-12-20T15:55:01.430Z,7.63
2018-12-20T15:57:28.932Z,7.63
2018-12-20T15:59:56.430Z,7.27
2018-12-20T16:02:23.984Z,7.13
2018-12-20T16:04:51.516Z,10.90
2018-12-20T16:07:19.048Z,9.67
2018-12-20T16:09:46.541Z,9.07
2018-12-20T16:12:14.059Z,10.87
2018-12-20T16:14:41.590Z,7.93
2018-12-20T16:17:09.056Z,9.00
2018-12-20T16:19:36.497Z,8.40
2018-12-20T16:22:04.256Z,11.27
2018-12-20T16:24:31.793Z,9.17
2018-12-20T16:26:59.431Z,6.33
2018-12-20T16:29:26.915Z,8.47
2018-12-20T16:31:58.948Z,16.47
2018-12-20T16:34:26.435Z,14.00
2018-12-20T16:36:54.060Z,10.73
2018-12-20T16:39:21.700Z,17.30
2018-12-20T16:41:49.972Z,14.20
2018-12-20T16:44:17.805Z,19.73
2018-12-20T16:46:45.269Z,18.00
2018-12-20T16:49:18.584Z,18.53
2018-12-20T16:51:50.664Z,14.60
2018-12-20T16:54:18.136Z,18.13
2018-12-20T16:56:45.815Z,19.57
2018-12-20T16:59:13.389Z,15.40
2018-12-20T17:01:41.002Z,19.00
2018-12-20T17:04:08.685Z,19.10
2018-12-20T17:06:36.729Z,15.73
2018-12-20T17:09:06.554Z,18.00
2018-12-20T17:11:34.195Z,19.73
2018-12-20T17:14:03.182Z,16.97
2018-12-20T17:16:30.734Z,21.30
2018-12-20T17:18:58.375Z,19.03
2018-12-20T17:21:29.995Z,17.17
2018-12-20T17:23:57.501Z,15.33
2018-12-20T17:26:26.094Z,18.73
2018-12-20T17:28:53.637Z,18.20
2018-12-20T17:31:21.228Z,13.93
2018-12-20T17:33:48.756Z,12.53
2018-12-20T17:36:16.256Z,20.97
2018-12-20T17:38:44.755Z,31.60
2018-12-20T17:41:12.216Z,19.30
2018-12-20T17:43:40.128Z,26.73
2018-12-20T17:46:07.677Z,23.70
2018-12-20T17:48:35.243Z,27.63
2018-12-20T17:51:02.829Z,29.63
2018-12-20T17:53:30.361Z,25.10
2018-12-20T17:55:58.006Z,29.37
2018-12-20T17:58:25.644Z,28.27
2018-12-20T18:00:54.228Z,34.40
2018-12-20T18:03:22.137Z,27.10
2018-12-20T18:05:50.336Z,32.40
2018-12-20T18:08:18.577Z,29.47
2018-12-20T18:10:46.142Z,27.57
2018-12-20T18:13:13.819Z,26.87
2018-12-20T18:15:42.500Z,29.23
2018-12-20T18:18:10.106Z,28.47
2018-12-20T18:20:40.882Z,23.60
2018-12-20T18:23:08.783Z,27.60
2018-12-20T18:25:36.576Z,28.07
2018-12-20T18:28:04.280Z,26.97
2018-12-20T18:30:33.643Z,25.17
2018-12-20T18:33:01.304Z,29.10
2018-12-20T18:35:29.264Z,23.17
2018-12-20T18:37:57.232Z,22.30
2018-12-20T18:40:29.014Z,23.37
2018-12-20T18:42:56.645Z,25.17
2018-12-20T18:45:25.072Z,22.50
2018-12-20T18:48:00.748Z,25.53
2018-12-20T18:50:30.532Z,18.80
2018-12-20T18:53:02.241Z,24.40
2018-12-20T18:55:35.064Z,21.20
2018-12-20T18:58:03.501Z,19.63
2018-12-20T19:00:32.853Z,20.73
2018-12-20T19:03:04.259Z,27.73
2018-12-20T19:05:33.929Z,23.67
2018-12-20T19:08:04.507Z,23.07
2018-12-20T19:10:37.195Z,21.87
2018-12-20T19:13:05.727Z,19.93
2018-12-20T19:15:34.282Z,27.60
2018-12-20T19:18:05.672Z,16.27
2018-12-20T19:20:33.344Z,22.73
2018-12-20T19:23:01.124Z,18.40
2018-12-20T19:25:28.642Z,19.60
2018-12-20T19:27:56.256Z,18.47
2018-12-20T19:30:24.437Z,17.43
2018-12-20T19:32:52.284Z,17.13
2018-12-20T19:35:19.860Z,18.17
2018-12-20T19:37:47.415Z,17.50
2018-12-20T19:40:19.138Z,20.37
2018-12-20T19:42:47.619Z,17.97
2018-12-20T19:45:15.310Z,16.23
2018-12-20T19:47:48.689Z,11.07
2018-12-20T19:50:16.999Z,14.00
2018-12-20T19:52:44.622Z,15.03
2018-12-20T19:55:12.313Z,18.17
2018-12-20T19:57:44.615Z,16.50
2018-12-20T20:00:13.380Z,9.53
2018-12-20T20:02:41.033Z,11.20
2018-12-20T20:05:09.942Z,19.27
2018-12-20T20:07:38.359Z,8.57
2018-12-20T20:10:06.776Z,11.63
2018-12-20T20:12:34.602Z,13.67
2018-12-20T20:15:06.362Z,11.30
2018-12-20T20:17:33.909Z,12.07
2018-12-20T20:20:01.470Z,8.17
2018-12-20T20:22:30.711Z,8.30
2018-12-20T20:24:58.321Z,8.70
2018-12-20T20:27:26.472Z,9.63
2018-12-20T20:29:54.883Z,9.10
2018-12-20T20:32:22.519Z,10.67
2018-12-20T20:34:50.002Z,7.77
2018-12-20T20:37:18.295Z,8.73
2018-12-20T20:39:49.894Z,10.70
2018-12-20T20:42:17.923Z,9.67
2018-12-20T20:44:45.475Z,11.40
2018-12-20T20:47:13.068Z,10.43
2018-12-20T20:49:45.357Z,11.77
2018-12-20T20:52:15.869Z,9.07
2018-12-20T20:54:44.231Z,8.10
2018-12-20T20:57:12.970Z,7.13
2018-12-20T20:59:40.707Z,6.90
2018-12-20T21:02:08.599Z,7.73
2018-12-20T21:04:36.244Z,7.00
2018-12-20T21:07:05.943Z,11.80
2018-12-20T21:09:33.575Z,8.97
2018-12-20T21:12:01.507Z,8.13
2018-12-20T21:14:29.263Z,6.97
2018-12-20T21:16:58.233Z,11.67
2018-12-20T21:19:26.531Z,12.07
2018-12-20T21:21:54.212Z,12.83
2018-12-20T21:24:21.781Z,11.70
2018-12-20T21:26:53.945Z,17.07
2018-12-20T21:29:21.509Z,11.87
2018-12-20T21:31:49.364Z,12.07
2018-12-20T21:34:24.862Z,17.80
2018-12-20T21:36:52.405Z,10.17
2018-12-20T21:39:21.149Z,12.47
2018-12-20T21:41:48.754Z,11.87
2018-12-20T21:44:16.355Z,13.40
2018-12-20T21:46:44.922Z,14.70
2018-12-20T21:49:12.511Z,13.97
2018-12-20T21:51:41.280Z,15.70
2018-12-20T21:54:13.227Z,12.30
2018-12-20T21:56:43.100Z,13.23
2018-12-20T21:59:12.235Z,10.57
2018-12-20T22:01:39.667Z,13.03
2018-12-20T22:04:07.838Z,20.03
2018-12-20T22:06:35.857Z,11.83
2018-12-20T22:09:04.632Z,11.47
2018-12-20T22:11:32.366Z,16.27
2018-12-20T22:14:00.078Z,12.53
2018-12-20T22:16:27.740Z,15.57
2018-12-20T22:18:55.474Z,12.73
2018-12-20T22:21:23.369Z,15.50
2018-12-20T22:23:55.285Z,13.40
2018-12-20T22:26:25.019Z,15.67
2018-12-20T22:28:52.753Z,20.23
2018-12-20T22:31:21.093Z,15.63
2018-12-20T22:33:48.628Z,16.40
2018-12-20T22:36:16.167Z,14.20
2018-12-20T22:38:43.964Z,15.50
2018-12-20T22:41:11.921Z,14.73
2018-12-20T22:43:39.797Z,13.50
2018-12-20T22:46:07.518Z,17.67
2018-12-20T22:48:35.282Z,12.03
2018-12-20T22:51:02.851Z,14.33
2018-12-20T22:53:30.640Z,12.57
2018-12-20T22:55:58.687Z,15.13
2018-12-20T22:58:26.157Z,13.47
2018-12-20T23:00:55.746Z,15.53
2018-12-20T23:03:23.325Z,12.27
2018-12-20T23:05:51.747Z,14.87
2018-12-20T23:08:20.025Z,11.83
2018-12-20T23:10:48.765Z,14.90
2018-12-20T23:13:17.178Z,10.63
2018-12-20T23:15:45.172Z,12.13
2018-12-20T23:18:12.850Z,11.87
2018-12-20T23:20:40.340Z,11.73
2018-12-20T23:23:07.925Z,12.93
2018-12-20T23:25:42.042Z,12.80
2018-12-20T23:28:09.934Z,10.47
2018-12-20T23:30:41.831Z,16.30
2018-12-20T23:33:09.313Z,13.07
2018-12-20T23:35:36.737Z,11.43
2018-12-20T23:38:04.190Z,10.63
2018-12-20T23:40:32.464Z,10.13
2018-12-20T23:42:59.985Z,9.13
2018-12-20T23:45:27.422Z,11.87
2018-12-20T23:47:54.865Z,12.83
2018-12-20T23:50:22.346Z,10.40
2018-12-20T23:52:49.773Z,10.17
2018-12-20T23:55:17.919Z,12.10
2018-12-20T23:57:45.478Z,12.40
